sensor_id;sensor_type;location;lat;lon;timestamp;temperature;humidity
74513;DHT22;62992;52.052;8.550;2023-04-24T00:02:17;11.10;99.90
74513;DHT22;62992;52.052;8.550;2023-04-24T00:05:01;11.10;99.90
74513;DHT22;62992;52.052;8.550;2023-04-24T00:07:46;11.10;99.90
74513;DHT22;62992;52.052;8.550;2023-04-24T00:10:29;11.00;99.90
74513;DHT22;62992;52.052;8.550;2023-04-24T00:13:14;11.00;99.90
74513;DHT22;62992;52.052;8.550;2023-04-24T00:15:58;11.00;99.90
74513;DHT22;62992;52.052;8.550;2023-04-24T00:18:42;11.00;99.90
74513;DHT22;62992;52.052;8.550;2023-04-24T00:21:26;10.90;99.90
74513;DHT22;62992;52.052;8.550;2023-04-24T00:24:10;10.90;99.90
74513;DHT22;62992;52.052;8.550;2023-04-24T00:26:54;10.80;99.90
74513;DHT22;62992;52.052;8.550;2023-04-24T00:29:38;10.80;99.90
74513;DHT22;62992;52.052;8.550;2023-04-24T00:32:22;10.80;99.90
74513;DHT22;62992;52.052;8.550;2023-04-24T00:35:07;10.80;99.90
74513;DHT22;62992;52.052;8.550;2023-04-24T00:37:51;10.80;99.90
74513;DHT22;62992;52.052;8.550;2023-04-24T00:40:35;10.80;99.90
74513;DHT22;62992;52.052;8.550;2023-04-24T00:43:19;10.80;99.90
74513;DHT22;62992;52.052;8.550;2023-04-24T00:46:03;10.80;99.90
74513;DHT22;62992;52.052;8.550;2023-04-24T00:48:48;10.70;99.90
74513;DHT22;62992;52.052;8.550;2023-04-24T00:51:32;10.80;99.90
74513;DHT22;62992;52.052;8.550;2023-04-24T00:54:17;10.90;99.90
74513;DHT22;62992;52.052;8.550;2023-04-24T00:57:05;10.90;99.90
74513;DHT22;62992;52.052;8.550;2023-04-24T00:59:51;11.00;99.90
74513;DHT22;62992;52.052;8.550;2023-04-24T01:02:36;10.90;99.90
74513;DHT22;62992;52.052;8.550;2023-04-24T01:05:20;10.80;99.90
74513;DHT22;62992;52.052;8.550;2023-04-24T01:08:05;10.90;99.90
74513;DHT22;62992;52.052;8.550;2023-04-24T01:10:51;11.00;99.90
74513;DHT22;62992;52.052;8.550;2023-04-24T01:13:36;11.00;99.90
74513;DHT22;62992;52.052;8.550;2023-04-24T01:16:20;11.00;99.90
74513;DHT22;62992;52.052;8.550;2023-04-24T01:19:07;10.90;99.90
74513;DHT22;62992;52.052;8.550;2023-04-24T01:21:53;10.90;99.90
74513;DHT22;62992;52.052;8.550;2023-04-24T01:24:38;10.90;99.90
74513;DHT22;62992;52.052;8.550;2023-04-24T01:27:22;10.80;99.90
74513;DHT22;62992;52.052;8.550;2023-04-24T01:30:07;10.90;99.90
74513;DHT22;62992;52.052;8.550;2023-04-24T01:32:52;10.90;99.90
74513;DHT22;62992;52.052;8.550;2023-04-24T01:35:37;11.00;99.90
74513;DHT22;62992;52.052;8.550;2023-04-24T01:38:22;11.00;99.90
74513;DHT22;62992;52.052;8.550;2023-04-24T01:41:06;10.90;99.90
74513;DHT22;62992;52.052;8.550;2023-04-24T01:43:50;11.00;99.90
74513;DHT22;62992;52.052;8.550;2023-04-24T01:46:34;10.90;99.90
74513;DHT22;62992;52.052;8.550;2023-04-24T01:49:20;10.80;99.90
74513;DHT22;62992;52.052;8.550;2023-04-24T01:52:04;10.80;99.90
74513;DHT22;62992;52.052;8.550;2023-04-24T01:54:48;10.80;99.90
74513;DHT22;62992;52.052;8.550;2023-04-24T01:57:33;10.70;99.90
74513;DHT22;62992;52.052;8.550;2023-04-24T02:00:18;10.70;99.90
74513;DHT22;62992;52.052;8.550;2023-04-24T02:03:02;10.70;99.90
74513;DHT22;62992;52.052;8.550;2023-04-24T02:05:46;10.70;99.90
74513;DHT22;62992;52.052;8.550;2023-04-24T02:08:30;10.60;99.90
74513;DHT22;62992;52.052;8.550;2023-04-24T02:11:14;10.60;99.90
74513;DHT22;62992;52.052;8.550;2023-04-24T02:13:58;10.60;99.90
74513;DHT22;62992;52.052;8.550;2023-04-24T02:16:42;10.50;99.90
74513;DHT22;62992;52.052;8.550;2023-04-24T02:19:27;10.50;99.90
74513;DHT22;62992;52.052;8.550;2023-04-24T02:22:12;10.50;99.90
74513;DHT22;62992;52.052;8.550;2023-04-24T02:24:56;10.40;99.90
74513;DHT22;62992;52.052;8.550;2023-04-24T02:27:40;10.40;99.90
74513;DHT22;62992;52.052;8.550;2023-04-24T02:30:24;10.30;99.90
74513;DHT22;62992;52.052;8.550;2023-04-24T02:33:08;10.30;99.90
74513;DHT22;62992;52.052;8.550;2023-04-24T02:35:52;10.30;99.90
74513;DHT22;62992;52.052;8.550;2023-04-24T02:38:36;10.30;99.90
74513;DHT22;62992;52.052;8.550;2023-04-24T02:41:20;10.20;99.90
74513;DHT22;62992;52.052;8.550;2023-04-24T02:44:04;10.20;99.90
74513;DHT22;62992;52.052;8.550;2023-04-24T02:46:49;10.10;99.90
74513;DHT22;62992;52.052;8.550;2023-04-24T02:49:33;10.20;99.90
74513;DHT22;62992;52.052;8.550;2023-04-24T02:52:17;10.10;99.90
74513;DHT22;62992;52.052;8.550;2023-04-24T02:55:01;10.10;99.90
74513;DHT22;62992;52.052;8.550;2023-04-24T02:57:45;10.10;99.90
74513;DHT22;62992;52.052;8.550;2023-04-24T03:00:29;10.10;99.90
74513;DHT22;62992;52.052;8.550;2023-04-24T03:03:14;10.10;99.90
74513;DHT22;62992;52.052;8.550;2023-04-24T03:05:58;10.10;99.90
74513;DHT22;62992;52.052;8.550;2023-04-24T03:08:43;10.10;99.90
74513;DHT22;62992;52.052;8.550;2023-04-24T03:11:27;10.10;99.90
74513;DHT22;62992;52.052;8.550;2023-04-24T03:14:11;10.10;99.90
74513;DHT22;62992;52.052;8.550;2023-04-24T03:16:55;10.20;99.90
74513;DHT22;62992;52.052;8.550;2023-04-24T03:19:39;10.20;99.90
74513;DHT22;62992;52.052;8.550;2023-04-24T03:22:23;10.30;99.90
74513;DHT22;62992;52.052;8.550;2023-04-24T03:25:08;10.30;99.90
74513;DHT22;62992;52.052;8.550;2023-04-24T03:27:53;10.30;99.90
74513;DHT22;62992;52.052;8.550;2023-04-24T03:30:38;10.30;99.90
74513;DHT22;62992;52.052;8.550;2023-04-24T03:33:22;10.40;99.90
74513;DHT22;62992;52.052;8.550;2023-04-24T03:36:07;10.40;99.90
74513;DHT22;62992;52.052;8.550;2023-04-24T03:38:51;10.40;99.90
74513;DHT22;62992;52.052;8.550;2023-04-24T03:41:35;10.40;99.90
74513;DHT22;62992;52.052;8.550;2023-04-24T03:44:19;10.40;99.90
74513;DHT22;62992;52.052;8.550;2023-04-24T03:47:03;10.40;99.90
74513;DHT22;62992;52.052;8.550;2023-04-24T03:49:47;10.40;99.90
74513;DHT22;62992;52.052;8.550;2023-04-24T03:52:31;10.40;99.90
74513;DHT22;62992;52.052;8.550;2023-04-24T03:55:15;10.40;99.90
74513;DHT22;62992;52.052;8.550;2023-04-24T03:58:00;10.40;99.90
74513;DHT22;62992;52.052;8.550;2023-04-24T04:00:44;10.40;99.90
74513;DHT22;62992;52.052;8.550;2023-04-24T04:03:30;10.40;99.90
74513;DHT22;62992;52.052;8.550;2023-04-24T04:06:15;10.30;99.90
74513;DHT22;62992;52.052;8.550;2023-04-24T04:08:59;10.30;99.90
74513;DHT22;62992;52.052;8.550;2023-04-24T04:11:43;10.30;99.90
74513;DHT22;62992;52.052;8.550;2023-04-24T04:14:27;10.30;99.90
74513;DHT22;62992;52.052;8.550;2023-04-24T04:17:12;10.30;99.90
74513;DHT22;62992;52.052;8.550;2023-04-24T04:19:56;10.30;99.90
74513;DHT22;62992;52.052;8.550;2023-04-24T04:22:41;10.30;99.90
74513;DHT22;62992;52.052;8.550;2023-04-24T04:25:25;10.30;99.90
74513;DHT22;62992;52.052;8.550;2023-04-24T04:28:09;10.30;99.90
74513;DHT22;62992;52.052;8.550;2023-04-24T04:30:53;10.30;99.90
74513;DHT22;62992;52.052;8.550;2023-04-24T04:33:38;10.30;99.90
74513;DHT22;62992;52.052;8.550;2023-04-24T04:36:23;10.30;99.90
74513;DHT22;62992;52.052;8.550;2023-04-24T04:39:07;10.30;99.90
74513;DHT22;62992;52.052;8.550;2023-04-24T04:41:52;10.40;99.90
74513;DHT22;62992;52.052;8.550;2023-04-24T04:44:36;10.30;99.90
74513;DHT22;62992;52.052;8.550;2023-04-24T04:47:22;10.40;99.90
74513;DHT22;62992;52.052;8.550;2023-04-24T04:50:07;10.50;99.90
74513;DHT22;62992;52.052;8.550;2023-04-24T04:52:52;10.40;99.90
74513;DHT22;62992;52.052;8.550;2023-04-24T04:55:37;10.30;99.90
74513;DHT22;62992;52.052;8.550;2023-04-24T04:58:21;10.30;99.90
74513;DHT22;62992;52.052;8.550;2023-04-24T05:01:05;10.10;99.90
74513;DHT22;62992;52.052;8.550;2023-04-24T05:03:50;10.00;99.90
74513;DHT22;62992;52.052;8.550;2023-04-24T05:06:34;10.00;99.90
74513;DHT22;62992;52.052;8.550;2023-04-24T05:09:19;10.00;99.90
74513;DHT22;62992;52.052;8.550;2023-04-24T05:12:03;9.90;99.90
74513;DHT22;62992;52.052;8.550;2023-04-24T05:14:47;9.80;99.90
74513;DHT22;62992;52.052;8.550;2023-04-24T05:17:31;9.70;99.90
74513;DHT22;62992;52.052;8.550;2023-04-24T05:20:16;9.80;99.90
74513;DHT22;62992;52.052;8.550;2023-04-24T05:23:00;9.80;99.90
74513;DHT22;62992;52.052;8.550;2023-04-24T05:25:44;9.80;99.90
74513;DHT22;62992;52.052;8.550;2023-04-24T05:28:30;9.80;99.90
74513;DHT22;62992;52.052;8.550;2023-04-24T05:31:14;9.80;99.90
74513;DHT22;62992;52.052;8.550;2023-04-24T05:33:58;9.80;99.90
74513;DHT22;62992;52.052;8.550;2023-04-24T05:36:42;9.80;99.90
74513;DHT22;62992;52.052;8.550;2023-04-24T05:39:26;9.90;99.90
74513;DHT22;62992;52.052;8.550;2023-04-24T05:42:11;9.90;99.90
74513;DHT22;62992;52.052;8.550;2023-04-24T05:44:55;9.90;99.90
74513;DHT22;62992;52.052;8.550;2023-04-24T05:47:39;10.00;99.90
74513;DHT22;62992;52.052;8.550;2023-04-24T05:50:23;9.90;99.90
74513;DHT22;62992;52.052;8.550;2023-04-24T05:53:07;9.90;99.90
74513;DHT22;62992;52.052;8.550;2023-04-24T05:55:52;10.00;99.90
74513;DHT22;62992;52.052;8.550;2023-04-24T05:58:36;9.90;99.90
74513;DHT22;62992;52.052;8.550;2023-04-24T06:01:21;9.90;99.90
74513;DHT22;62992;52.052;8.550;2023-04-24T06:04:05;10.00;99.90
74513;DHT22;62992;52.052;8.550;2023-04-24T06:06:49;10.10;99.90
74513;DHT22;62992;52.052;8.550;2023-04-24T06:09:34;10.00;99.90
74513;DHT22;62992;52.052;8.550;2023-04-24T06:12:19;10.10;99.90
74513;DHT22;62992;52.052;8.550;2023-04-24T06:15:03;10.10;99.90
74513;DHT22;62992;52.052;8.550;2023-04-24T06:17:48;10.00;99.90
74513;DHT22;62992;52.052;8.550;2023-04-24T06:20:32;10.10;99.90
74513;DHT22;62992;52.052;8.550;2023-04-24T06:23:16;10.10;99.90
74513;DHT22;62992;52.052;8.550;2023-04-24T06:26:00;10.10;99.90
74513;DHT22;62992;52.052;8.550;2023-04-24T06:28:45;10.20;99.90
74513;DHT22;62992;52.052;8.550;2023-04-24T06:31:29;10.20;99.90
74513;DHT22;62992;52.052;8.550;2023-04-24T06:34:14;10.20;99.90
74513;DHT22;62992;52.052;8.550;2023-04-24T06:36:58;10.10;99.90
74513;DHT22;62992;52.052;8.550;2023-04-24T06:39:42;10.20;99.90
74513;DHT22;62992;52.052;8.550;2023-04-24T06:42:26;10.20;99.90
74513;DHT22;62992;52.052;8.550;2023-04-24T06:45:10;10.20;99.90
74513;DHT22;62992;52.052;8.550;2023-04-24T06:47:55;10.10;99.90
74513;DHT22;62992;52.052;8.550;2023-04-24T06:50:39;10.10;99.90
74513;DHT22;62992;52.052;8.550;2023-04-24T06:53:23;10.10;99.90
74513;DHT22;62992;52.052;8.550;2023-04-24T06:56:07;10.20;99.90
74513;DHT22;62992;52.052;8.550;2023-04-24T06:58:52;10.10;99.90
74513;DHT22;62992;52.052;8.550;2023-04-24T07:01:37;10.10;99.90
74513;DHT22;62992;52.052;8.550;2023-04-24T07:04:21;10.30;99.90
74513;DHT22;62992;52.052;8.550;2023-04-24T07:07:05;10.20;99.90
74513;DHT22;62992;52.052;8.550;2023-04-24T07:09:50;10.20;99.90
74513;DHT22;62992;52.052;8.550;2023-04-24T07:12:34;10.20;99.90
74513;DHT22;62992;52.052;8.550;2023-04-24T07:15:19;10.20;99.90
74513;DHT22;62992;52.052;8.550;2023-04-24T07:18:03;10.10;99.90
74513;DHT22;62992;52.052;8.550;2023-04-24T07:20:48;10.10;99.90
74513;DHT22;62992;52.052;8.550;2023-04-24T07:23:34;10.20;99.90
74513;DHT22;62992;52.052;8.550;2023-04-24T07:26:19;10.10;99.90
74513;DHT22;62992;52.052;8.550;2023-04-24T07:29:04;10.10;99.90
74513;DHT22;62992;52.052;8.550;2023-04-24T07:31:48;10.20;99.90
74513;DHT22;62992;52.052;8.550;2023-04-24T07:34:33;10.30;99.90
74513;DHT22;62992;52.052;8.550;2023-04-24T07:37:17;10.30;99.90
74513;DHT22;62992;52.052;8.550;2023-04-24T07:40:01;10.30;99.90
74513;DHT22;62992;52.052;8.550;2023-04-24T07:42:46;10.30;99.90
74513;DHT22;62992;52.052;8.550;2023-04-24T07:45:32;10.40;99.90
74513;DHT22;62992;52.052;8.550;2023-04-24T07:48:20;10.40;99.90
74513;DHT22;62992;52.052;8.550;2023-04-24T07:51:06;10.50;99.90
74513;DHT22;62992;52.052;8.550;2023-04-24T07:53:50;10.50;99.90
74513;DHT22;62992;52.052;8.550;2023-04-24T07:56:34;10.50;99.90
74513;DHT22;62992;52.052;8.550;2023-04-24T07:59:19;10.50;99.90
74513;DHT22;62992;52.052;8.550;2023-04-24T08:02:03;10.60;99.90
74513;DHT22;62992;52.052;8.550;2023-04-24T08:04:47;10.50;99.90
74513;DHT22;62992;52.052;8.550;2023-04-24T08:07:31;10.50;99.90
74513;DHT22;62992;52.052;8.550;2023-04-24T08:10:16;10.50;99.90
74513;DHT22;62992;52.052;8.550;2023-04-24T08:13:00;10.50;99.90
74513;DHT22;62992;52.052;8.550;2023-04-24T08:15:44;10.50;99.90
74513;DHT22;62992;52.052;8.550;2023-04-24T08:18:28;10.50;99.90
74513;DHT22;62992;52.052;8.550;2023-04-24T08:21:12;10.50;99.90
74513;DHT22;62992;52.052;8.550;2023-04-24T08:24:00;10.40;99.90
74513;DHT22;62992;52.052;8.550;2023-04-24T08:26:48;10.40;99.90
74513;DHT22;62992;52.052;8.550;2023-04-24T08:29:38;10.40;99.90
74513;DHT22;62992;52.052;8.550;2023-04-24T08:32:22;10.40;99.90
74513;DHT22;62992;52.052;8.550;2023-04-24T08:35:06;10.40;99.90
74513;DHT22;62992;52.052;8.550;2023-04-24T08:37:53;10.70;99.90
74513;DHT22;62992;52.052;8.550;2023-04-24T08:40:38;10.90;99.90
74513;DHT22;62992;52.052;8.550;2023-04-24T08:43:23;11.20;99.90
74513;DHT22;62992;52.052;8.550;2023-04-24T08:46:09;11.40;99.90
74513;DHT22;62992;52.052;8.550;2023-04-24T08:48:54;11.60;99.90
74513;DHT22;62992;52.052;8.550;2023-04-24T08:51:39;11.50;99.90
74513;DHT22;62992;52.052;8.550;2023-04-24T08:54:25;11.40;99.90
74513;DHT22;62992;52.052;8.550;2023-04-24T08:57:09;11.30;99.90
74513;DHT22;62992;52.052;8.550;2023-04-24T08:59:56;11.10;99.90
74513;DHT22;62992;52.052;8.550;2023-04-24T09:02:45;11.20;99.90
74513;DHT22;62992;52.052;8.550;2023-04-24T09:05:31;10.90;99.90
74513;DHT22;62992;52.052;8.550;2023-04-24T09:08:19;10.80;99.90
74513;DHT22;62992;52.052;8.550;2023-04-24T09:11:03;11.00;99.90
74513;DHT22;62992;52.052;8.550;2023-04-24T09:13:49;10.80;99.90
74513;DHT22;62992;52.052;8.550;2023-04-24T09:16:33;10.80;99.90
74513;DHT22;62992;52.052;8.550;2023-04-24T09:19:18;10.80;99.90
74513;DHT22;62992;52.052;8.550;2023-04-24T09:22:05;10.70;99.90
74513;DHT22;62992;52.052;8.550;2023-04-24T09:25:17;10.80;99.90
74513;DHT22;62992;52.052;8.550;2023-04-24T09:28:03;10.70;99.90
74513;DHT22;62992;52.052;8.550;2023-04-24T09:31:14;10.70;99.90
74513;DHT22;62992;52.052;8.550;2023-04-24T09:34:03;10.80;99.90
74513;DHT22;62992;52.052;8.550;2023-04-24T09:36:49;10.60;99.90
74513;DHT22;62992;52.052;8.550;2023-04-24T09:39:34;10.50;99.90
74513;DHT22;62992;52.052;8.550;2023-04-24T09:42:18;10.50;99.90
74513;DHT22;62992;52.052;8.550;2023-04-24T09:45:04;10.40;99.90
74513;DHT22;62992;52.052;8.550;2023-04-24T09:47:52;10.40;99.90
74513;DHT22;62992;52.052;8.550;2023-04-24T09:50:37;10.30;99.90
74513;DHT22;62992;52.052;8.550;2023-04-24T09:53:25;10.50;99.90
74513;DHT22;62992;52.052;8.550;2023-04-24T09:56:10;10.50;99.90
74513;DHT22;62992;52.052;8.550;2023-04-24T09:58:58;10.60;99.90
74513;DHT22;62992;52.052;8.550;2023-04-24T10:01:48;10.60;99.90
74513;DHT22;62992;52.052;8.550;2023-04-24T10:04:36;10.50;99.90
74513;DHT22;62992;52.052;8.550;2023-04-24T10:07:20;10.60;99.90
74513;DHT22;62992;52.052;8.550;2023-04-24T10:10:04;10.50;99.90
74513;DHT22;62992;52.052;8.550;2023-04-24T10:12:51;10.70;99.90
74513;DHT22;62992;52.052;8.550;2023-04-24T10:15:35;10.60;99.90
74513;DHT22;62992;52.052;8.550;2023-04-24T10:18:20;10.50;99.90
74513;DHT22;62992;52.052;8.550;2023-04-24T10:21:05;10.30;99.90
74513;DHT22;62992;52.052;8.550;2023-04-24T10:23:50;10.20;99.90
74513;DHT22;62992;52.052;8.550;2023-04-24T10:26:35;10.20;99.90
74513;DHT22;62992;52.052;8.550;2023-04-24T10:29:19;10.40;99.90
74513;DHT22;62992;52.052;8.550;2023-04-24T10:32:07;10.70;99.90
74513;DHT22;62992;52.052;8.550;2023-04-24T10:34:51;10.90;99.90
74513;DHT22;62992;52.052;8.550;2023-04-24T10:37:38;11.00;99.90
74513;DHT22;62992;52.052;8.550;2023-04-24T10:40:29;10.90;99.90
74513;DHT22;62992;52.052;8.550;2023-04-24T10:43:17;10.90;99.90
74513;DHT22;62992;52.052;8.550;2023-04-24T10:46:04;10.70;99.90
74513;DHT22;62992;52.052;8.550;2023-04-24T10:48:55;10.30;99.90
74513;DHT22;62992;52.052;8.550;2023-04-24T10:57:27;10.00;99.90
74513;DHT22;62992;52.052;8.550;2023-04-24T11:00:21;10.10;99.90
74513;DHT22;62992;52.052;8.550;2023-04-24T11:03:08;10.10;99.90
74513;DHT22;62992;52.052;8.550;2023-04-24T11:08:48;9.90;99.90
74513;DHT22;62992;52.052;8.550;2023-04-24T11:11:34;9.90;99.90
74513;DHT22;62992;52.052;8.550;2023-04-24T11:14:18;9.90;99.90
74513;DHT22;62992;52.052;8.550;2023-04-24T11:17:03;10.00;99.90
74513;DHT22;62992;52.052;8.550;2023-04-24T11:19:50;9.90;99.90
74513;DHT22;62992;52.052;8.550;2023-04-24T11:22:36;9.80;99.90
74513;DHT22;62992;52.052;8.550;2023-04-24T11:25:21;9.90;99.90
74513;DHT22;62992;52.052;8.550;2023-04-24T11:28:06;10.20;99.90
74513;DHT22;62992;52.052;8.550;2023-04-24T11:30:51;10.20;99.90
74513;DHT22;62992;52.052;8.550;2023-04-24T11:33:36;10.30;99.90
74513;DHT22;62992;52.052;8.550;2023-04-24T11:36:21;10.20;99.90
74513;DHT22;62992;52.052;8.550;2023-04-24T11:39:06;10.20;99.90
74513;DHT22;62992;52.052;8.550;2023-04-24T11:41:50;10.10;99.90
74513;DHT22;62992;52.052;8.550;2023-04-24T11:44:35;10.00;99.90
74513;DHT22;62992;52.052;8.550;2023-04-24T11:47:27;9.90;99.90
74513;DHT22;62992;52.052;8.550;2023-04-24T11:50:16;9.80;99.90
74513;DHT22;62992;52.052;8.550;2023-04-24T11:53:00;9.80;99.90
74513;DHT22;62992;52.052;8.550;2023-04-24T11:55:45;9.50;99.90
74513;DHT22;62992;52.052;8.550;2023-04-24T11:58:34;9.70;99.90
74513;DHT22;62992;52.052;8.550;2023-04-24T12:01:18;9.60;99.90
74513;DHT22;62992;52.052;8.550;2023-04-24T12:04:02;9.50;99.90
74513;DHT22;62992;52.052;8.550;2023-04-24T12:06:59;9.40;99.90
74513;DHT22;62992;52.052;8.550;2023-04-24T12:09:58;9.50;99.90
74513;DHT22;62992;52.052;8.550;2023-04-24T12:12:45;9.50;99.90
74513;DHT22;62992;52.052;8.550;2023-04-24T12:15:30;9.40;99.90
74513;DHT22;62992;52.052;8.550;2023-04-24T12:18:15;9.50;99.90
74513;DHT22;62992;52.052;8.550;2023-04-24T12:21:22;9.50;99.90
74513;DHT22;62992;52.052;8.550;2023-04-24T12:24:09;9.30;99.90
74513;DHT22;62992;52.052;8.550;2023-04-24T12:26:53;9.10;99.90
74513;DHT22;62992;52.052;8.550;2023-04-24T12:29:57;9.10;99.90
74513;DHT22;62992;52.052;8.550;2023-04-24T12:32:49;9.00;99.90
74513;DHT22;62992;52.052;8.550;2023-04-24T12:35:33;9.00;99.90
74513;DHT22;62992;52.052;8.550;2023-04-24T12:38:23;9.00;99.90
74513;DHT22;62992;52.052;8.550;2023-04-24T12:41:09;9.20;99.90
74513;DHT22;62992;52.052;8.550;2023-04-24T12:43:54;9.20;99.90
74513;DHT22;62992;52.052;8.550;2023-04-24T12:46:39;9.20;99.90
74513;DHT22;62992;52.052;8.550;2023-04-24T12:49:23;9.20;99.90
74513;DHT22;62992;52.052;8.550;2023-04-24T12:52:07;9.30;99.90
74513;DHT22;62992;52.052;8.550;2023-04-24T12:54:57;9.30;99.90
74513;DHT22;62992;52.052;8.550;2023-04-24T12:57:41;9.30;99.90
74513;DHT22;62992;52.052;8.550;2023-04-24T13:00:25;9.30;99.90
74513;DHT22;62992;52.052;8.550;2023-04-24T13:03:10;9.30;99.90
74513;DHT22;62992;52.052;8.550;2023-04-24T13:05:54;9.40;99.90
74513;DHT22;62992;52.052;8.550;2023-04-24T13:08:38;9.30;99.90
74513;DHT22;62992;52.052;8.550;2023-04-24T13:11:22;9.40;99.90
74513;DHT22;62992;52.052;8.550;2023-04-24T13:14:07;9.40;99.90
74513;DHT22;62992;52.052;8.550;2023-04-24T13:16:51;9.40;99.90
74513;DHT22;62992;52.052;8.550;2023-04-24T13:19:41;9.30;99.90
74513;DHT22;62992;52.052;8.550;2023-04-24T13:22:25;9.20;99.90
74513;DHT22;62992;52.052;8.550;2023-04-24T13:25:09;9.20;99.90
74513;DHT22;62992;52.052;8.550;2023-04-24T13:27:54;9.20;99.90
74513;DHT22;62992;52.052;8.550;2023-04-24T13:30:38;9.20;99.90
74513;DHT22;62992;52.052;8.550;2023-04-24T13:33:22;9.20;99.90
74513;DHT22;62992;52.052;8.550;2023-04-24T13:36:06;9.20;99.90
74513;DHT22;62992;52.052;8.550;2023-04-24T13:38:50;9.20;99.90
74513;DHT22;62992;52.052;8.550;2023-04-24T13:41:34;9.10;99.90
74513;DHT22;62992;52.052;8.550;2023-04-24T13:44:20;9.00;99.90
74513;DHT22;62992;52.052;8.550;2023-04-24T13:47:05;8.90;99.90
74513;DHT22;62992;52.052;8.550;2023-04-24T13:49:49;9.00;99.90
74513;DHT22;62992;52.052;8.550;2023-04-24T13:52:34;8.90;99.90
74513;DHT22;62992;52.052;8.550;2023-04-24T13:55:18;9.10;99.90
74513;DHT22;62992;52.052;8.550;2023-04-24T13:58:02;9.00;99.90
74513;DHT22;62992;52.052;8.550;2023-04-24T14:00:46;9.10;99.90
74513;DHT22;62992;52.052;8.550;2023-04-24T14:03:30;9.20;99.90
74513;DHT22;62992;52.052;8.550;2023-04-24T14:06:15;9.10;99.90
74513;DHT22;62992;52.052;8.550;2023-04-24T14:08:59;9.10;99.90
74513;DHT22;62992;52.052;8.550;2023-04-24T14:11:43;9.20;99.90
74513;DHT22;62992;52.052;8.550;2023-04-24T14:14:27;9.20;99.90
74513;DHT22;62992;52.052;8.550;2023-04-24T14:17:13;9.40;99.90
74513;DHT22;62992;52.052;8.550;2023-04-24T14:19:57;9.50;99.90
74513;DHT22;62992;52.052;8.550;2023-04-24T14:22:44;9.80;99.90
74513;DHT22;62992;52.052;8.550;2023-04-24T14:25:29;9.90;99.90
74513;DHT22;62992;52.052;8.550;2023-04-24T14:28:14;10.00;99.90
74513;DHT22;62992;52.052;8.550;2023-04-24T14:30:58;10.10;99.90
74513;DHT22;62992;52.052;8.550;2023-04-24T14:33:43;10.00;99.90
74513;DHT22;62992;52.052;8.550;2023-04-24T14:36:27;9.90;99.90
74513;DHT22;62992;52.052;8.550;2023-04-24T14:39:11;9.70;99.90
74513;DHT22;62992;52.052;8.550;2023-04-24T14:41:55;9.60;99.90
74513;DHT22;62992;52.052;8.550;2023-04-24T14:44:40;9.60;99.90
74513;DHT22;62992;52.052;8.550;2023-04-24T14:47:24;9.60;99.90
74513;DHT22;62992;52.052;8.550;2023-04-24T14:50:08;9.70;99.90
74513;DHT22;62992;52.052;8.550;2023-04-24T14:52:54;9.50;99.90
74513;DHT22;62992;52.052;8.550;2023-04-24T14:55:41;9.50;99.90
74513;DHT22;62992;52.052;8.550;2023-04-24T14:58:25;9.40;99.90
74513;DHT22;62992;52.052;8.550;2023-04-24T15:01:09;9.30;99.90
74513;DHT22;62992;52.052;8.550;2023-04-24T15:03:54;9.20;99.90
74513;DHT22;62992;52.052;8.550;2023-04-24T15:06:38;9.20;99.90
74513;DHT22;62992;52.052;8.550;2023-04-24T15:09:23;9.20;99.90
74513;DHT22;62992;52.052;8.550;2023-04-24T15:12:08;9.30;99.90
74513;DHT22;62992;52.052;8.550;2023-04-24T15:14:54;9.40;99.90
74513;DHT22;62992;52.052;8.550;2023-04-24T15:17:39;9.50;99.90
74513;DHT22;62992;52.052;8.550;2023-04-24T15:20:23;9.40;99.90
74513;DHT22;62992;52.052;8.550;2023-04-24T15:23:08;9.50;99.90
74513;DHT22;62992;52.052;8.550;2023-04-24T15:25:53;9.50;99.90
74513;DHT22;62992;52.052;8.550;2023-04-24T15:28:37;9.50;99.90
74513;DHT22;62992;52.052;8.550;2023-04-24T15:31:21;9.40;99.90
74513;DHT22;62992;52.052;8.550;2023-04-24T15:34:06;9.40;99.90
74513;DHT22;62992;52.052;8.550;2023-04-24T15:36:50;9.40;99.90
74513;DHT22;62992;52.052;8.550;2023-04-24T15:39:34;9.40;99.90
74513;DHT22;62992;52.052;8.550;2023-04-24T15:42:18;9.30;99.90
74513;DHT22;62992;52.052;8.550;2023-04-24T15:45:03;9.20;99.90
74513;DHT22;62992;52.052;8.550;2023-04-24T15:47:47;9.20;99.90
74513;DHT22;62992;52.052;8.550;2023-04-24T15:50:31;9.20;99.90
74513;DHT22;62992;52.052;8.550;2023-04-24T15:53:15;9.20;99.90
74513;DHT22;62992;52.052;8.550;2023-04-24T15:56:05;9.20;99.90
74513;DHT22;62992;52.052;8.550;2023-04-24T15:58:49;9.30;99.90
74513;DHT22;62992;52.052;8.550;2023-04-24T16:01:33;9.30;99.90
74513;DHT22;62992;52.052;8.550;2023-04-24T16:04:17;9.20;99.90
74513;DHT22;62992;52.052;8.550;2023-04-24T16:07:01;9.20;99.90
74513;DHT22;62992;52.052;8.550;2023-04-24T16:09:46;9.20;99.90
74513;DHT22;62992;52.052;8.550;2023-04-24T16:12:30;9.20;99.90
74513;DHT22;62992;52.052;8.550;2023-04-24T16:15:14;9.30;99.90
74513;DHT22;62992;52.052;8.550;2023-04-24T16:17:59;9.30;99.90
74513;DHT22;62992;52.052;8.550;2023-04-24T16:20:43;9.30;99.90
74513;DHT22;62992;52.052;8.550;2023-04-24T16:23:27;9.20;99.90
74513;DHT22;62992;52.052;8.550;2023-04-24T16:26:12;9.20;99.90
74513;DHT22;62992;52.052;8.550;2023-04-24T16:28:56;9.10;99.90
74513;DHT22;62992;52.052;8.550;2023-04-24T16:31:40;9.10;99.90
74513;DHT22;62992;52.052;8.550;2023-04-24T16:34:25;9.10;99.90
74513;DHT22;62992;52.052;8.550;2023-04-24T16:37:09;9.10;99.90
74513;DHT22;62992;52.052;8.550;2023-04-24T16:39:55;9.10;99.90
74513;DHT22;62992;52.052;8.550;2023-04-24T16:42:39;9.10;99.90
74513;DHT22;62992;52.052;8.550;2023-04-24T16:45:23;9.20;99.90
74513;DHT22;62992;52.052;8.550;2023-04-24T16:48:07;9.10;99.90
74513;DHT22;62992;52.052;8.550;2023-04-24T16:50:53;9.00;99.90
74513;DHT22;62992;52.052;8.550;2023-04-24T16:53:37;8.90;99.90
74513;DHT22;62992;52.052;8.550;2023-04-24T16:56:22;8.90;99.90
74513;DHT22;62992;52.052;8.550;2023-04-24T16:59:07;8.90;99.90
74513;DHT22;62992;52.052;8.550;2023-04-24T17:01:51;8.80;99.90
74513;DHT22;62992;52.052;8.550;2023-04-24T17:04:35;8.80;99.90
74513;DHT22;62992;52.052;8.550;2023-04-24T17:07:19;8.80;99.90
74513;DHT22;62992;52.052;8.550;2023-04-24T17:10:04;8.80;99.90
74513;DHT22;62992;52.052;8.550;2023-04-24T17:12:49;8.80;99.90
74513;DHT22;62992;52.052;8.550;2023-04-24T17:15:34;8.80;99.90
74513;DHT22;62992;52.052;8.550;2023-04-24T17:18:18;8.90;99.90
74513;DHT22;62992;52.052;8.550;2023-04-24T17:21:02;8.90;99.90
74513;DHT22;62992;52.052;8.550;2023-04-24T17:23:46;9.00;99.90
74513;DHT22;62992;52.052;8.550;2023-04-24T17:26:30;9.00;99.90
74513;DHT22;62992;52.052;8.550;2023-04-24T17:29:15;8.90;99.90
74513;DHT22;62992;52.052;8.550;2023-04-24T17:32:00;8.90;99.90
74513;DHT22;62992;52.052;8.550;2023-04-24T17:34:44;8.80;99.90
74513;DHT22;62992;52.052;8.550;2023-04-24T17:37:28;8.70;99.90
74513;DHT22;62992;52.052;8.550;2023-04-24T17:40:12;8.70;99.90